La rose des vents
Donnes mto: Semaine 26/06/17 - 02/07/17 (S 26)
Date Horaire Temp. E. Hum. E. P.atmo. Pluie Vent 1mn Direction Ensoleilleme Ev.Tr. Solaire P. de rose Temp au vent Rafales
26/06/2017 00:00 22,8 C 94 % 1012,5 hPa 0,0 l/m 0,3 km/h (0 Bft) E-SE 0,00 h 0,000 mm 0 W/m 21,8 C 22,8 C 1,5 km/h (1 Bft)
26/06/2017 01:00 22,3 C 95 % 1012,6 hPa 0,0 l/m 0,0 km/h (0 Bft) N 0,00 h 0,000 mm 0 W/m 21,5 C 22,3 C 0,2 km/h (0 Bft)
26/06/2017 02:00 21,9 C 95 % 1012,3 hPa 0,0 l/m 0,0 km/h (0 Bft) N 0,00 h 0,000 mm 0 W/m 21,1 C 21,9 C 0,1 km/h (0 Bft)
26/06/2017 03:00 21,4 C 96 % 1012,3 hPa 0,0 l/m 0,1 km/h (0 Bft) O-SO 0,00 h 0,000 mm 0 W/m 20,7 C 21,4 C 1,2 km/h (1 Bft)
26/06/2017 04:00 20,8 C 95 % 1012,2 hPa 0,0 l/m 0,0 km/h (0 Bft) N 0,00 h 0,000 mm 0 W/m 20,0 C 20,8 C 0,3 km/h (0 Bft)
26/06/2017 05:00 20,0 C 91 % 1012,3 hPa 0,0 l/m 0,0 km/h (0 Bft) N 0,00 h 0,000 mm 7 W/m 18,5 C 20,0 C 0,2 km/h (0 Bft)
26/06/2017 06:00 19,7 C 90 % 1012,5 hPa 0,0 l/m 0,0 km/h (0 Bft) N 0,13 h 0,000 mm 35 W/m 18,0 C 19,7 C 0,0 km/h (0 Bft)
26/06/2017 07:00 21,2 C 87 % 1012,9 hPa 0,0 l/m 0,0 km/h (0 Bft) N 0,00 h 0,025 mm 80 W/m 19,0 C 21,2 C 0,1 km/h (0 Bft)
26/06/2017 08:00 23,2 C 85 % 1013,3 hPa 0,0 l/m 0,2 km/h (0 Bft) E 0,38 h 0,051 mm 232 W/m 20,5 C 23,2 C 0,8 km/h (0 Bft)
26/06/2017 09:00 25,4 C 78 % 1013,4 hPa 0,0 l/m 0,9 km/h (0 Bft) S 0,60 h 0,152 mm 435 W/m 21,2 C 25,4 C 3,0 km/h (1 Bft)
26/06/2017 10:00 27,1 C 71 % 1013,6 hPa 0,0 l/m 2,0 km/h (1 Bft) E 0,65 h 0,279 mm 488 W/m 21,4 C 27,1 C 5,8 km/h (1 Bft)
26/06/2017 11:00 28,5 C 68 % 1013,7 hPa 0,0 l/m 4,4 km/h (1 Bft) S 0,93 h 0,356 mm 757 W/m 21,9 C 28,5 C 9,0 km/h (2 Bft)
26/06/2017 12:00 28,8 C 67 % 1013,8 hPa 0,0 l/m 2,9 km/h (1 Bft) E 0,90 h 0,508 mm 838 W/m 21,9 C 28,8 C 8,5 km/h (2 Bft)
26/06/2017 13:00 28,5 C 67 % 1014,1 hPa 0,0 l/m 2,2 km/h (1 Bft) E 0,77 h 0,559 mm 700 W/m 21,8 C 28,5 C 8,4 km/h (2 Bft)
26/06/2017 14:00 26,5 C 75 % 1014,5 hPa 0,0 l/m 0,9 km/h (0 Bft) E 0,03 h 0,483 mm 314 W/m 21,6 C 26,5 C 4,3 km/h (1 Bft)
26/06/2017 15:00 24,4 C 81 % 1013,6 hPa 0,0 l/m 0,6 km/h (0 Bft) E 0,00 h 0,203 mm 104 W/m 21,0 C 24,4 C 2,9 km/h (1 Bft)
26/06/2017 16:00 25,6 C 78 % 1011,5 hPa 0,0 l/m 0,6 km/h (0 Bft) E 0,58 h 0,076 mm 460 W/m 21,5 C 25,6 C 3,6 km/h (1 Bft)
26/06/2017 17:00 27,5 C 71 % 1010,6 hPa 0,0 l/m 2,1 km/h (1 Bft) E 1,00 h 0,305 mm 574 W/m 21,7 C 27,5 C 7,1 km/h (2 Bft)
26/06/2017 18:00 25,5 C 80 % 1011,3 hPa 0,0 l/m 1,7 km/h (1 Bft) E 0,20 h 0,381 mm 213 W/m 21,7 C 25,5 C 5,7 km/h (1 Bft)
26/06/2017 19:00 24,2 C 85 % 1011,2 hPa 0,0 l/m 0,0 km/h (0 Bft) E-SE 0,00 h 0,127 mm 48 W/m 21,5 C 24,2 C 0,5 km/h (0 Bft)
26/06/2017 20:00 23,5 C 88 % 1011,4 hPa 0,0 l/m 0,0 km/h (0 Bft) N 0,00 h 0,025 mm 16 W/m 21,4 C 23,5 C 0,0 km/h (0 Bft)
26/06/2017 21:00 22,9 C 89 % 1011,2 hPa 0,0 l/m 0,0 km/h (0 Bft) N 0,00 h 0,000 mm 5 W/m 21,0 C 22,9 C 0,0 km/h (0 Bft)
26/06/2017 22:00 22,2 C 90 % 1010,8 hPa 0,0 l/m 0,0 km/h (0 Bft) N 0,00 h 0,000 mm 0 W/m 20,6 C 22,2 C 0,0 km/h (0 Bft)
26/06/2017 23:00 21,6 C 92 % 1010,4 hPa 0,0 l/m 0,0 km/h (0 Bft) N 0,00 h 0,000 mm 0 W/m 20,2 C 21,6 C 0,0 km/h (0 Bft)
27/06/2017 00:00 21,2 C 93 % 1010,0 hPa 0,0 l/m 0,0 km/h (0 Bft) N 0,00 h 0,000 mm 0 W/m 20,0 C 21,2 C 0,2 km/h (0 Bft)
27/06/2017 01:00 21,0 C 92 % 1009,5 hPa 0,0 l/m 0,0 km/h (0 Bft) N 0,00 h 0,000 mm 0 W/m 19,7 C 21,0 C 0,1 km/h (0 Bft)
27/06/2017 02:00 20,8 C 88 % 1009,2 hPa 0,0 l/m 0,0 km/h (0 Bft) N 0,00 h 0,000 mm 0 W/m 18,7 C 20,8 C 0,0 km/h (0 Bft)
27/06/2017 03:00 21,3 C 81 % 1008,5 hPa 0,0 l/m 0,0 km/h (0 Bft) N 0,00 h 0,000 mm 0 W/m 17,9 C 21,3 C 0,6 km/h (0 Bft)
27/06/2017 04:00 21,6 C 78 % 1008,1 hPa 0,0 l/m 0,0 km/h (0 Bft) N 0,00 h 0,025 mm 0 W/m 17,6 C 21,6 C 0,2 km/h (0 Bft)
27/06/2017 05:00 21,6 C 75 % 1008,2 hPa 0,0 l/m 0,0 km/h (0 Bft) N 0,00 h 0,025 mm 6 W/m 16,9 C 21,6 C 0,1 km/h (0 Bft)
27/06/2017 06:00 22,1 C 71 % 1008,0 hPa 0,0 l/m 0,0 km/h (0 Bft) O-NO 0,13 h 0,000 mm 37 W/m 16,6 C 22,1 C 0,5 km/h (0 Bft)
27/06/2017 07:00 23,6 C 68 % 1008,0 hPa 0,0 l/m 0,1 km/h (0 Bft) O-NO 0,00 h 0,025 mm 74 W/m 17,5 C 23,6 C 0,5 km/h (0 Bft)
27/06/2017 08:00 26,0 C 61 % 1008,3 hPa 0,0 l/m 1,5 km/h (1 Bft) O-SO 0,48 h 0,051 mm 250 W/m 17,8 C 26,0 C 4,6 km/h (1 Bft)
27/06/2017 09:00 28,6 C 51 % 1008,4 hPa 0,0 l/m 3,8 km/h (1 Bft) S 1,00 h 0,178 mm 518 W/m 17,5 C 28,6 C 8,1 km/h (2 Bft)
27/06/2017 10:00 29,3 C 50 % 1008,6 hPa 0,0 l/m 5,9 km/h (2 Bft) S 1,00 h 0,381 mm 666 W/m 17,7 C 29,3 C 10,8 km/h (2 Bft)
27/06/2017 11:00 30,0 C 52 % 1008,9 hPa 0,0 l/m 6,5 km/h (2 Bft) S 1,00 h 0,483 mm 784 W/m 18,9 C 30,0 C 12,8 km/h (3 Bft)
27/06/2017 12:00 30,0 C 58 % 1009,3 hPa 0,0 l/m 3,3 km/h (1 Bft) E 1,00 h 0,584 mm 868 W/m 20,9 C 30,0 C 9,2 km/h (2 Bft)
27/06/2017 13:00 30,4 C 60 % 1009,3 hPa 0,0 l/m 2,9 km/h (1 Bft) E 0,82 h 0,610 mm 890 W/m 21,6 C 30,4 C 8,0 km/h (2 Bft)
27/06/2017 14:00 29,1 C 65 % 1009,2 hPa 0,0 l/m 3,0 km/h (1 Bft) E 0,43 h 0,584 mm 560 W/m 21,8 C 29,1 C 8,4 km/h (2 Bft)
27/06/2017 15:00 28,7 C 66 % 1009,0 hPa 0,0 l/m 1,7 km/h (1 Bft) E 0,30 h 0,432 mm 490 W/m 21,8 C 28,7 C 6,0 km/h (2 Bft)
27/06/2017 16:00 28,9 C 66 % 1008,8 hPa 0,0 l/m 2,2 km/h (1 Bft) E-SE 0,70 h 0,356 mm 561 W/m 21,8 C 28,9 C 6,2 km/h (2 Bft)
27/06/2017 17:00 28,1 C 68 % 1008,5 hPa 0,0 l/m 1,0 km/h (0 Bft) S 0,23 h 0,381 mm 281 W/m 21,5 C 28,1 C 3,7 km/h (1 Bft)
27/06/2017 18:00 27,4 C 73 % 1008,1 hPa 0,0 l/m 0,0 km/h (0 Bft) N 0,03 h 0,203 mm 144 W/m 22,0 C 27,4 C 0,5 km/h (0 Bft)
27/06/2017 19:00 26,1 C 78 % 1007,6 hPa 0,0 l/m 0,0 km/h (0 Bft) N 0,10 h 0,102 mm 103 W/m 22,0 C 26,1 C 0,2 km/h (0 Bft)
27/06/2017 20:00 25,1 C 82 % 1007,2 hPa 0,0 l/m 0,0 km/h (0 Bft) N 0,00 h 0,076 mm 26 W/m 21,8 C 25,1 C 0,0 km/h (0 Bft)
27/06/2017 21:00 24,2 C 85 % 1006,9 hPa 0,0 l/m 0,0 km/h (0 Bft) N 0,00 h 0,025 mm 8 W/m 21,5 C 24,2 C 0,0 km/h (0 Bft)
27/06/2017 22:00 23,0 C 90 % 1006,7 hPa 0,0 l/m 0,0 km/h (0 Bft) N 0,00 h 0,000 mm 0 W/m 21,2 C 23,0 C 0,1 km/h (0 Bft)
27/06/2017 23:00 22,4 C 92 % 1006,2 hPa 0,0 l/m 0,0 km/h (0 Bft) N 0,00 h 0,000 mm 0 W/m 21,0 C 22,4 C 0,0 km/h (0 Bft)
28/06/2017 00:00 22,0 C 94 % 1006,5 hPa 0,0 l/m 0,0 km/h (0 Bft) N 0,00 h 0,000 mm 0 W/m 20,9 C 22,0 C 0,3 km/h (0 Bft)
28/06/2017 01:00 21,8 C 94 % 1006,2 hPa 0,0 l/m 0,0 km/h (0 Bft) N 0,00 h 0,000 mm 0 W/m 20,7 C 21,8 C 0,0 km/h (0 Bft)
28/06/2017 02:00 21,6 C 94 % 1006,0 hPa 0,0 l/m 0,0 km/h (0 Bft) N 0,00 h 0,000 mm 0 W/m 20,7 C 21,6 C 0,0 km/h (0 Bft)
28/06/2017 03:00 21,3 C 93 % 1005,3 hPa 0,0 l/m 0,0 km/h (0 Bft) N 0,00 h 0,000 mm 0 W/m 20,1 C 21,3 C 0,0 km/h (0 Bft)
28/06/2017 04:00 21,1 C 91 % 1004,4 hPa 0,0 l/m 0,0 km/h (0 Bft) N 0,00 h 0,000 mm 0 W/m 19,5 C 21,1 C 0,0 km/h (0 Bft)
28/06/2017 05:00 20,5 C 88 % 1003,9 hPa 0,0 l/m 0,0 km/h (0 Bft) N 0,00 h 0,000 mm 6 W/m 18,5 C 20,5 C 0,0 km/h (0 Bft)
28/06/2017 06:00 20,2 C 89 % 1003,8 hPa 0,0 l/m 0,0 km/h (0 Bft) N 0,07 h 0,000 mm 29 W/m 18,4 C 20,2 C 0,0 km/h (0 Bft)
28/06/2017 07:00 20,8 C 91 % 1003,6 hPa 0,0 l/m 0,0 km/h (0 Bft) N 0,00 h 0,025 mm 79 W/m 19,3 C 20,8 C 0,0 km/h (0 Bft)
28/06/2017 08:00 22,7 C 86 % 1003,6 hPa 0,0 l/m 0,1 km/h (0 Bft) NO 0,53 h 0,051 mm 273 W/m 20,3 C 22,7 C 0,4 km/h (0 Bft)
28/06/2017 09:00 25,4 C 74 % 1002,9 hPa 0,0 l/m 0,1 km/h (0 Bft) E 0,83 h 0,152 mm 497 W/m 20,4 C 25,4 C 0,8 km/h (0 Bft)
28/06/2017 10:00 28,7 C 64 % 1002,4 hPa 0,0 l/m 1,7 km/h (1 Bft) E 0,93 h 0,305 mm 710 W/m 21,1 C 28,7 C 5,5 km/h (1 Bft)
28/06/2017 11:00 28,4 C 63 % 1002,3 hPa 0,0 l/m 5,4 km/h (1 Bft) E 0,68 h 0,483 mm 659 W/m 20,7 C 28,4 C 11,1 km/h (2 Bft)
28/06/2017 12:00 26,9 C 66 % 1001,8 hPa 0,0 l/m 7,2 km/h (2 Bft) S 0,23 h 0,457 mm 309 W/m 20,0 C 26,9 C 13,8 km/h (3 Bft)
28/06/2017 13:00 24,9 C 75 % 1001,9 hPa 0,0 l/m 4,7 km/h (1 Bft) S-SO 0,00 h 0,229 mm 280 W/m 20,1 C 24,9 C 9,7 km/h (2 Bft)
28/06/2017 14:00 25,7 C 61 % 1001,2 hPa 0,0 l/m 0,8 km/h (0 Bft) E 0,38 h 0,203 mm 540 W/m 17,5 C 25,7 C 2,9 km/h (1 Bft)
28/06/2017 15:00 28,3 C 51 % 1000,1 hPa 0,0 l/m 1,2 km/h (1 Bft) E 0,95 h 0,381 mm 795 W/m 17,1 C 28,3 C 4,4 km/h (1 Bft)
28/06/2017 16:00 23,6 C 66 % 1000,4 hPa 13,4 l/m 3,7 km/h (1 Bft) S-SO 0,18 h 0,508 mm 184 W/m 16,2 C 23,6 C 8,5 km/h (2 Bft)
28/06/2017 17:00 20,9 C 95 % 999,8 hPa 0,0 l/m 0,0 km/h (0 Bft) NO 0,77 h 0,152 mm 526 W/m 20,0 C 20,9 C 0,3 km/h (0 Bft)
28/06/2017 18:00 23,1 C 83 % 999,0 hPa 0,0 l/m 0,0 km/h (0 Bft) N 0,62 h 0,305 mm 279 W/m 20,1 C 23,1 C 0,1 km/h (0 Bft)
28/06/2017 19:00 23,3 C 71 % 999,0 hPa 0,0 l/m 2,9 km/h (1 Bft) SO 0,67 h 0,178 mm 161 W/m 17,6 C 23,3 C 6,6 km/h (2 Bft)
28/06/2017 20:00 22,9 C 58 % 999,2 hPa 0,0 l/m 4,1 km/h (1 Bft) SO 0,02 h 0,127 mm 34 W/m 14,2 C 22,9 C 10,4 km/h (2 Bft)
28/06/2017 21:00 21,7 C 63 % 999,4 hPa 0,0 l/m 6,3 km/h (2 Bft) SO 0,00 h 0,051 mm 9 W/m 14,4 C 21,7 C 15,4 km/h (3 Bft)
28/06/2017 22:00 21,0 C 67 % 1000,1 hPa 0,0 l/m 9,9 km/h (2 Bft) O-SO 0,00 h 0,051 mm 0 W/m 14,7 C 21,0 C 19,6 km/h (3 Bft)
28/06/2017 23:00 20,4 C 70 % 1000,0 hPa 0,0 l/m 5,2 km/h (1 Bft) O-SO 0,00 h 0,076 mm 0 W/m 14,8 C 20,4 C 12,8 km/h (3 Bft)
29/06/2017 00:00 20,3 C 59 % 1000,0 hPa 0,0 l/m 2,8 km/h (1 Bft) SO 0,00 h 0,051 mm 0 W/m 12,0 C 20,3 C 7,2 km/h (2 Bft)
29/06/2017 01:00 18,7 C 67 % 999,8 hPa 0,0 l/m 3,5 km/h (1 Bft) O-SO 0,00 h 0,051 mm 0 W/m 12,3 C 18,7 C 9,6 km/h (2 Bft)
29/06/2017 02:00 17,5 C 72 % 999,8 hPa 0,0 l/m 3,1 km/h (1 Bft) O-SO 0,00 h 0,051 mm 0 W/m 12,4 C 17,5 C 7,9 km/h (2 Bft)
29/06/2017 03:00 17,5 C 67 % 999,4 hPa 0,0 l/m 9,1 km/h (2 Bft) O-SO 0,00 h 0,025 mm 0 W/m 11,4 C 17,5 C 18,9 km/h (3 Bft)
29/06/2017 04:00 17,7 C 63 % 999,9 hPa 0,0 l/m 9,5 km/h (2 Bft) O-SO 0,00 h 0,051 mm 0 W/m 10,7 C 17,7 C 20,8 km/h (4 Bft)
29/06/2017 05:00 18,6 C 56 % 1000,6 hPa 0,0 l/m 4,2 km/h (1 Bft) O-SO 0,00 h 0,076 mm 6 W/m 9,6 C 18,6 C 11,1 km/h (2 Bft)
29/06/2017 06:00 18,1 C 61 % 1001,6 hPa 0,0 l/m 9,4 km/h (2 Bft) SO 0,02 h 0,025 mm 15 W/m 10,4 C 18,1 C 18,4 km/h (3 Bft)
29/06/2017 07:00 18,2 C 64 % 1002,4 hPa 0,0 l/m 5,7 km/h (1 Bft) SO 0,00 h 0,076 mm 27 W/m 11,3 C 18,2 C 13,3 km/h (3 Bft)
29/06/2017 08:00 19,8 C 61 % 1002,9 hPa 0,0 l/m 6,7 km/h (2 Bft) SO 0,52 h 0,051 mm 254 W/m 12,0 C 19,8 C 15,3 km/h (3 Bft)
29/06/2017 09:00 21,2 C 60 % 1003,4 hPa 0,0 l/m 10,8 km/h (2 Bft) SO 1,00 h 0,203 mm 556 W/m 13,0 C 21,2 C 21,1 km/h (4 Bft)
29/06/2017 10:00 22,9 C 54 % 1003,1 hPa 0,0 l/m 12,8 km/h (3 Bft) SO 1,00 h 0,381 mm 705 W/m 13,0 C 22,9 C 24,2 km/h (4 Bft)
29/06/2017 11:00 23,5 C 51 % 1003,4 hPa 0,0 l/m 16,6 km/h (3 Bft) SO 1,00 h 0,508 mm 822 W/m 12,8 C 23,5 C 28,9 km/h (5 Bft)
29/06/2017 12:00 24,4 C 48 % 1003,5 hPa 0,0 l/m 18,0 km/h (3 Bft) SO 1,00 h 0,635 mm 897 W/m 12,7 C 24,4 C 31,3 km/h (5 Bft)
29/06/2017 13:00 26,1 C 42 % 1003,8 hPa 0,0 l/m 16,7 km/h (3 Bft) SO 1,00 h 0,686 mm 926 W/m 12,1 C 26,1 C 30,1 km/h (5 Bft)
29/06/2017 14:00 26,8 C 38 % 1004,0 hPa 0,0 l/m 18,8 km/h (3 Bft) SO 1,00 h 0,737 mm 910 W/m 11,4 C 26,8 C 31,0 km/h (5 Bft)
29/06/2017 15:00 27,3 C 35 % 1004,4 hPa 0,0 l/m 15,6 km/h (3 Bft) SO 1,00 h 0,762 mm 837 W/m 10,5 C 27,3 C 29,1 km/h (5 Bft)
29/06/2017 16:00 27,4 C 34 % 1004,5 hPa 0,0 l/m 10,2 km/h (2 Bft) SO 0,82 h 0,711 mm 632 W/m 10,0 C 27,4 C 22,6 km/h (4 Bft)
29/06/2017 17:00 26,1 C 36 % 1004,5 hPa 0,0 l/m 14,3 km/h (3 Bft) SO 0,53 h 0,508 mm 414 W/m 9,9 C 26,1 C 26,5 km/h (4 Bft)
29/06/2017 18:00 25,6 C 37 % 1004,8 hPa 0,0 l/m 11,3 km/h (2 Bft) SO 1,00 h 0,406 mm 390 W/m 10,0 C 25,6 C 22,6 km/h (4 Bft)
29/06/2017 19:00 24,5 C 38 % 1004,9 hPa 0,0 l/m 12,0 km/h (2 Bft) SO 0,90 h 0,356 mm 200 W/m 9,0 C 24,5 C 24,3 km/h (4 Bft)
29/06/2017 20:00 23,1 C 40 % 1005,5 hPa 0,0 l/m 8,4 km/h (2 Bft) SO 0,00 h 0,254 mm 25 W/m 8,7 C 23,1 C 18,5 km/h (3 Bft)
29/06/2017 21:00 21,8 C 41 % 1006,1 hPa 0,0 l/m 5,8 km/h (2 Bft) O-SO 0,00 h 0,102 mm 6 W/m 8,1 C 21,8 C 14,0 km/h (3 Bft)
29/06/2017 22:00 20,7 C 44 % 1007,2 hPa 0,0 l/m 6,1 km/h (2 Bft) SO 0,00 h 0,051 mm 0 W/m 8,1 C 20,7 C 14,0 km/h (3 Bft)
29/06/2017 23:00 19,6 C 52 % 1007,6 hPa 0,0 l/m 7,7 km/h (2 Bft) SO 0,00 h 0,076 mm 0 W/m 9,4 C 19,6 C 16,1 km/h (3 Bft)
30/06/2017 00:00 18,8 C 60 % 1007,7 hPa 0,0 l/m 8,0 km/h (2 Bft) SO 0,00 h 0,076 mm 0 W/m 10,8 C 18,8 C 15,7 km/h (3 Bft)
30/06/2017 01:00 18,3 C 63 % 1008,0 hPa 0,0 l/m 7,3 km/h (2 Bft) SO 0,00 h 0,076 mm 0 W/m 11,2 C 18,3 C 14,7 km/h (3 Bft)
30/06/2017 02:00 18,0 C 65 % 1008,0 hPa 0,0 l/m 6,2 km/h (2 Bft) O-SO 0,00 h 0,051 mm 0 W/m 11,2 C 18,0 C 12,6 km/h (3 Bft)
30/06/2017 03:00 17,4 C 67 % 1008,1 hPa 0,0 l/m 5,7 km/h (1 Bft) O-SO 0,00 h 0,051 mm 0 W/m 11,2 C 17,4 C 12,3 km/h (3 Bft)
30/06/2017 04:00 17,3 C 67 % 1007,8 hPa 0,0 l/m 3,9 km/h (1 Bft) O-SO 0,00 h 0,051 mm 0 W/m 11,0 C 17,3 C 9,2 km/h (2 Bft)
30/06/2017 05:00 17,1 C 67 % 1007,7 hPa 0,0 l/m 1,7 km/h (1 Bft) O-SO 0,00 h 0,051 mm 5 W/m 10,9 C 17,1 C 5,4 km/h (1 Bft)
30/06/2017 06:00 17,0 C 66 % 1008,0 hPa 0,0 l/m 2,0 km/h (1 Bft) O-SO 0,15 h 0,025 mm 35 W/m 10,6 C 17,0 C 6,3 km/h (2 Bft)
30/06/2017 07:00 17,5 C 64 % 1008,3 hPa 0,0 l/m 2,1 km/h (1 Bft) O-SO 0,00 h 0,025 mm 84 W/m 10,6 C 17,5 C 6,0 km/h (2 Bft)
30/06/2017 08:00 18,5 C 61 % 1008,9 hPa 0,0 l/m 2,3 km/h (1 Bft) O-SO 0,22 h 0,051 mm 217 W/m 10,7 C 18,5 C 7,4 km/h (2 Bft)
30/06/2017 09:00 20,3 C 55 % 1009,4 hPa 0,0 l/m 3,6 km/h (1 Bft) SO 0,82 h 0,152 mm 473 W/m 10,9 C 20,3 C 8,2 km/h (2 Bft)
30/06/2017 10:00 23,1 C 43 % 1009,1 hPa 0,0 l/m 6,5 km/h (2 Bft) SO 0,97 h 0,305 mm 705 W/m 9,7 C 23,1 C 13,9 km/h (3 Bft)
30/06/2017 11:00 25,7 C 28 % 1008,9 hPa 0,0 l/m 13,4 km/h (3 Bft) SO 1,00 h 0,483 mm 800 W/m 6,0 C 25,7 C 24,7 km/h (4 Bft)
30/06/2017 12:00 26,6 C 26 % 1008,8 hPa 0,0 l/m 14,2 km/h (3 Bft) SO 1,00 h 0,635 mm 917 W/m 5,5 C 26,6 C 25,3 km/h (4 Bft)
30/06/2017 13:00 27,0 C 26 % 1008,2 hPa 0,0 l/m 17,5 km/h (3 Bft) SO 1,00 h 0,737 mm 945 W/m 5,7 C 27,0 C 28,7 km/h (4 Bft)
30/06/2017 14:00 27,4 C 25 % 1008,2 hPa 0,0 l/m 16,1 km/h (3 Bft) SO 1,00 h 0,813 mm 847 W/m 5,7 C 27,4 C 27,3 km/h (4 Bft)
30/06/2017 15:00 27,1 C 28 % 1008,0 hPa 0,0 l/m 13,2 km/h (3 Bft) SO 0,98 h 0,737 mm 683 W/m 6,8 C 27,1 C 25,0 km/h (4 Bft)
30/06/2017 16:00 26,6 C 28 % 1007,8 hPa 0,0 l/m 16,3 km/h (3 Bft) SO 0,88 h 0,584 mm 584 W/m 6,6 C 26,6 C 28,5 km/h (4 Bft)
30/06/2017 17:00 26,7 C 30 % 1008,0 hPa 0,0 l/m 12,5 km/h (3 Bft) SO 0,92 h 0,559 mm 542 W/m 7,5 C 26,7 C 24,0 km/h (4 Bft)
30/06/2017 18:00 26,2 C 30 % 1007,7 hPa 0,0 l/m 16,3 km/h (3 Bft) SO 1,00 h 0,483 mm 383 W/m 7,1 C 26,2 C 29,0 km/h (5 Bft)
30/06/2017 19:00 25,1 C 33 % 1007,7 hPa 0,0 l/m 14,1 km/h (3 Bft) SO 0,90 h 0,432 mm 201 W/m 7,5 C 25,1 C 27,8 km/h (4 Bft)
30/06/2017 20:00 23,2 C 42 % 1008,1 hPa 0,0 l/m 13,6 km/h (3 Bft) O-SO 0,00 h 0,279 mm 26 W/m 9,5 C 23,2 C 27,5 km/h (4 Bft)
30/06/2017 21:00 21,5 C 47 % 1008,7 hPa 0,0 l/m 8,5 km/h (2 Bft) O-SO 0,00 h 0,152 mm 6 W/m 9,6 C 21,5 C 20,2 km/h (4 Bft)
30/06/2017 22:00 20,7 C 48 % 1009,9 hPa 0,0 l/m 3,5 km/h (1 Bft) O-SO 0,00 h 0,076 mm 0 W/m 9,4 C 20,7 C 10,8 km/h (2 Bft)
30/06/2017 23:00 20,1 C 51 % 1010,3 hPa 0,0 l/m 1,7 km/h (1 Bft) SO 0,00 h 0,127 mm 0 W/m 9,6 C 20,1 C 5,9 km/h (2 Bft)
01/07/2017 00:00 19,8 C 49 % 1010,4 hPa 0,0 l/m 0,7 km/h (0 Bft) O-NO 0,00 h 0,000 mm 0 W/m 8,8 C 19,8 C 4,1 km/h (1 Bft)
01/07/2017 01:00 19,6 C 50 % 1010,1 hPa 0,0 l/m 1,4 km/h (1 Bft) SO 0,00 h 0,051 mm 0 W/m 8,8 C 19,6 C 4,0 km/h (1 Bft)
01/07/2017 02:00 18,6 C 52 % 1009,8 hPa 0,0 l/m 0,2 km/h (0 Bft) O-SO 0,00 h 0,051 mm 0 W/m 8,5 C 18,6 C 1,3 km/h (1 Bft)
01/07/2017 03:00 18,0 C 55 % 1009,9 hPa 0,0 l/m 0,2 km/h (0 Bft) O 0,00 h 0,051 mm 0 W/m 8,8 C 18,0 C 1,3 km/h (1 Bft)
01/07/2017 04:00 17,2 C 60 % 1010,1 hPa 0,0 l/m 0,3 km/h (0 Bft) O-SO 0,00 h 0,051 mm 0 W/m 9,3 C 17,2 C 2,6 km/h (1 Bft)
01/07/2017 05:00 16,4 C 64 % 1010,3 hPa 0,0 l/m 0,2 km/h (0 Bft) O-NO 0,00 h 0,025 mm 5 W/m 9,5 C 16,4 C 1,6 km/h (1 Bft)
01/07/2017 06:00 15,9 C 67 % 1010,8 hPa 0,0 l/m 0,1 km/h (0 Bft) O 0,02 h 0,000 mm 14 W/m 9,7 C 15,9 C 0,6 km/h (0 Bft)
01/07/2017 07:00 16,5 C 66 % 1011,4 hPa 0,0 l/m 0,0 km/h (0 Bft) N 0,00 h 0,025 mm 23 W/m 10,1 C 16,5 C 0,0 km/h (0 Bft)
01/07/2017 08:00 18,3 C 61 % 1012,0 hPa 0,0 l/m 0,1 km/h (0 Bft) O 0,53 h 0,025 mm 259 W/m 10,5 C 18,3 C 0,4 km/h (0 Bft)
01/07/2017 09:00 21,8 C 51 % 1012,5 hPa 0,0 l/m 1,1 km/h (1 Bft) S 1,00 h 0,152 mm 563 W/m 11,1 C 21,8 C 3,0 km/h (1 Bft)
01/07/2017 10:00 24,1 C 45 % 1012,5 hPa 0,0 l/m 2,2 km/h (1 Bft) S 1,00 h 0,356 mm 712 W/m 11,4 C 24,1 C 5,5 km/h (1 Bft)
01/07/2017 11:00 25,3 C 44 % 1012,5 hPa 0,0 l/m 3,9 km/h (1 Bft) E 1,00 h 0,457 mm 827 W/m 12,0 C 25,3 C 9,3 km/h (2 Bft)
01/07/2017 12:00 25,4 C 47 % 1012,4 hPa 0,0 l/m 3,5 km/h (1 Bft) E 1,00 h 0,559 mm 903 W/m 13,2 C 25,4 C 8,8 km/h (2 Bft)
01/07/2017 13:00 26,2 C 43 % 1012,3 hPa 0,0 l/m 2,2 km/h (1 Bft) E 1,00 h 0,610 mm 929 W/m 12,6 C 26,2 C 6,7 km/h (2 Bft)
01/07/2017 14:00 27,2 C 41 % 1012,0 hPa 0,0 l/m 1,9 km/h (1 Bft) E 1,00 h 0,610 mm 901 W/m 12,9 C 27,2 C 6,3 km/h (2 Bft)
01/07/2017 15:00 27,8 C 40 % 1011,6 hPa 0,0 l/m 1,6 km/h (1 Bft) E 1,00 h 0,610 mm 828 W/m 13,0 C 27,8 C 5,8 km/h (2 Bft)
01/07/2017 16:00 27,3 C 43 % 1011,3 hPa 0,0 l/m 1,4 km/h (1 Bft) NE 1,00 h 0,559 mm 705 W/m 13,5 C 27,3 C 5,8 km/h (2 Bft)
01/07/2017 17:00 26,6 C 44 % 1011,2 hPa 0,0 l/m 1,1 km/h (1 Bft) NE 1,00 h 0,483 mm 551 W/m 13,4 C 26,6 C 4,5 km/h (1 Bft)
01/07/2017 18:00 24,7 C 49 % 1011,5 hPa 0,0 l/m 1,3 km/h (1 Bft) E 1,00 h 0,381 mm 378 W/m 13,1 C 24,7 C 5,4 km/h (1 Bft)
01/07/2017 19:00 22,6 C 55 % 1012,3 hPa 0,0 l/m 0,8 km/h (0 Bft) E 0,83 h 0,254 mm 202 W/m 13,1 C 22,6 C 4,2 km/h (1 Bft)
01/07/2017 20:00 21,0 C 57 % 1012,6 hPa 0,0 l/m 0,3 km/h (0 Bft) E 0,00 h 0,127 mm 25 W/m 12,2 C 21,0 C 1,9 km/h (1 Bft)
01/07/2017 21:00 19,4 C 64 % 1012,6 hPa 0,0 l/m 0,1 km/h (0 Bft) E 0,00 h 0,025 mm 6 W/m 12,5 C 19,4 C 0,9 km/h (0 Bft)
01/07/2017 22:00 18,5 C 70 % 1013,2 hPa 0,0 l/m 0,0 km/h (0 Bft) N 0,00 h 0,000 mm 0 W/m 13,0 C 18,5 C 0,2 km/h (0 Bft)
01/07/2017 23:00 18,0 C 75 % 1013,6 hPa 0,0 l/m 0,0 km/h (0 Bft) N 0,00 h 0,025 mm 0 W/m 13,6 C 18,0 C 0,2 km/h (0 Bft)
02/07/2017 00:00 17,2 C 79 % 1014,1 hPa 0,0 l/m 0,0 km/h (0 Bft) N 0,00 h 0,025 mm 0 W/m 13,6 C 17,2 C 0,1 km/h (0 Bft)
02/07/2017 01:00 16,6 C 81 % 1014,1 hPa 0,0 l/m 0,0 km/h (0 Bft) N 0,00 h 0,025 mm 0 W/m 13,3 C 16,6 C 0,0 km/h (0 Bft)
02/07/2017 02:00 16,1 C 81 % 1014,4 hPa 0,0 l/m 0,0 km/h (0 Bft) E 0,00 h 0,025 mm 0 W/m 12,8 C 16,1 C 0,3 km/h (0 Bft)
02/07/2017 03:00 16,2 C 86 % 1014,3 hPa 0,0 l/m 0,0 km/h (0 Bft) N 0,00 h 0,025 mm 0 W/m 13,8 C 16,2 C 0,1 km/h (0 Bft)
02/07/2017 04:00 16,0 C 82 % 1014,1 hPa 0,0 l/m 0,0 km/h (0 Bft) N 0,00 h 0,025 mm 0 W/m 13,0 C 16,0 C 0,0 km/h (0 Bft)
02/07/2017 05:00 15,6 C 80 % 1014,2 hPa 0,0 l/m 0,0 km/h (0 Bft) N 0,00 h 0,025 mm 5 W/m 12,1 C 15,6 C 0,0 km/h (0 Bft)
02/07/2017 06:00 15,3 C 75 % 1014,7 hPa 0,0 l/m 0,0 km/h (0 Bft) N 0,02 h 0,000 mm 15 W/m 11,0 C 15,3 C 0,1 km/h (0 Bft)
02/07/2017 07:00 16,6 C 72 % 1014,9 hPa 0,0 l/m 0,0 km/h (0 Bft) N 0,00 h 0,025 mm 26 W/m 11,5 C 16,6 C 0,0 km/h (0 Bft)
02/07/2017 08:00 18,9 C 66 % 1015,3 hPa 0,0 l/m 0,5 km/h (0 Bft) SO 0,57 h 0,025 mm 253 W/m 12,4 C 18,9 C 1,4 km/h (1 Bft)
02/07/2017 09:00 22,3 C 56 % 1015,4 hPa 0,0 l/m 1,1 km/h (1 Bft) S-SO 1,00 h 0,152 mm 548 W/m 13,0 C 22,3 C 3,3 km/h (1 Bft)
02/07/2017 10:00 24,8 C 50 % 1015,4 hPa 0,0 l/m 1,0 km/h (0 Bft) S-SO 1,00 h 0,330 mm 697 W/m 13,7 C 24,8 C 3,5 km/h (1 Bft)
02/07/2017 11:00 26,5 C 46 % 1015,6 hPa 0,0 l/m 5,8 km/h (2 Bft) S 1,00 h 0,457 mm 812 W/m 13,8 C 26,5 C 11,1 km/h (2 Bft)
02/07/2017 12:00 27,0 C 45 % 1015,7 hPa 0,0 l/m 7,6 km/h (2 Bft) S 1,00 h 0,584 mm 884 W/m 13,9 C 27,0 C 13,7 km/h (3 Bft)
02/07/2017 13:00 26,6 C 45 % 1016,1 hPa 0,0 l/m 5,1 km/h (1 Bft) S 1,00 h 0,635 mm 905 W/m 13,6 C 26,6 C 10,5 km/h (2 Bft)
02/07/2017 14:00 26,5 C 51 % 1016,1 hPa 0,0 l/m 4,0 km/h (1 Bft) E 1,00 h 0,635 mm 877 W/m 15,4 C 26,5 C 9,0 km/h (2 Bft)
02/07/2017 15:00 26,4 C 53 % 1015,8 hPa 0,0 l/m 2,7 km/h (1 Bft) S 1,00 h 0,584 mm 802 W/m 16,0 C 26,4 C 6,8 km/h (2 Bft)
02/07/2017 16:00 26,8 C 49 % 1015,7 hPa 0,0 l/m 2,7 km/h (1 Bft) S 1,00 h 0,533 mm 688 W/m 14,9 C 26,8 C 6,3 km/h (2 Bft)
02/07/2017 17:00 27,0 C 43 % 1015,7 hPa 0,0 l/m 2,6 km/h (1 Bft) S 1,00 h 0,457 mm 542 W/m 13,4 C 27,0 C 6,2 km/h (2 Bft)
02/07/2017 18:00 26,8 C 38 % 1015,7 hPa 0,0 l/m 3,4 km/h (1 Bft) S 1,00 h 0,381 mm 375 W/m 11,4 C 26,8 C 8,0 km/h (2 Bft)
02/07/2017 19:00 25,9 C 46 % 1015,7 hPa 0,0 l/m 1,3 km/h (1 Bft) S 0,87 h 0,279 mm 192 W/m 13,3 C 25,9 C 3,0 km/h (1 Bft)
02/07/2017 20:00 23,2 C 60 % 1015,7 hPa 0,0 l/m 0,0 km/h (0 Bft) N 0,00 h 0,152 mm 23 W/m 14,9 C 23,2 C 0,0 km/h (0 Bft)
02/07/2017 21:00 21,3 C 65 % 1015,8 hPa 0,0 l/m 0,0 km/h (0 Bft) N 0,00 h 0,025 mm 6 W/m 14,4 C 21,3 C 0,0 km/h (0 Bft)
02/07/2017 22:00 19,9 C 66 % 1016,3 hPa 0,0 l/m 0,0 km/h (0 Bft) N 0,00 h 0,000 mm 0 W/m 13,5 C 19,9 C 0,0 km/h (0 Bft)
02/07/2017 23:00 19,4 C 62 % 1016,5 hPa 0,0 l/m 0,0 km/h (0 Bft) N 0,00 h 0,025 mm 0 W/m 12,0 C 19,4 C 0,0 km/h (0 Bft)
Min-Date _ 02/07/17 30/06/17 28/06/17 - 26/06/17 - - - - 30/06/17 02/07/17 26/06/17
_ Min-Heure 06:14 12:10 19:00 - 00:00 - - - - 12:10 06:14 00:01
Minimum _ 15,2 C 24 % 998,7 hPa - 0,0 km/h (0 Bft) - - - - 4,1 C 15,2 C 0,0 km/h (0 Bft)
Max-Date _ 27/06/17 28/06/17 02/07/17 28/06/17 29/06/17 - 26/06/17 30/06/17 26/06/17 26/06/17 27/06/17 28/06/17
_ Max-Heure 13:17 17:33 22:45 16:29 13:39 - 06:03 14:00 13:44 11:59 13:17 16:28
Maximum _ 31,1 C 97 % 1016,6 hPa 13,4 l/m 32,2 km/h
SO (5 Bft)
- 0,02 h 0,813 mm 1188 W/m 22,4 C 31,1 C 46,7 km/h
S-SO (6 Bft)
Moyenne _ 22,8 C 64 % 1008,8 hPa #13,4 l/m 3,7 km/h (1 Bft) SO #64:44 h #36,545 mm 399 W/m 14,9 C 22,8 C 7,9 km/h (2 Bft)
Roquefort les pins